sensor_id;sensor_type;location;lat;lon;timestamp;P1;durP1;ratioP1;P2;durP2;ratioP2
21591;SDS011;10958;50.892;3.992;2023-09-19T00:00:47;10.93;;;2.00;;
21591;SDS011;10958;50.892;3.992;2023-09-19T00:03:13;9.13;;;1.70;;
21591;SDS011;10958;50.892;3.992;2023-09-19T00:05:42;7.25;;;1.85;;
21591;SDS011;10958;50.892;3.992;2023-09-19T00:08:09;14.43;;;2.25;;
21591;SDS011;10958;50.892;3.992;2023-09-19T00:10:38;11.13;;;2.15;;
21591;SDS011;10958;50.892;3.992;2023-09-19T00:13:06;12.13;;;2.40;;
21591;SDS011;10958;50.892;3.992;2023-09-19T00:15:38;6.97;;;1.70;;
21591;SDS011;10958;50.892;3.992;2023-09-19T00:18:16;14.50;;;2.38;;
21591;SDS011;10958;50.892;3.992;2023-09-19T00:23:22;9.48;;;2.42;;
21591;SDS011;10958;50.892;3.992;2023-09-19T00:28:23;11.95;;;1.70;;
21591;SDS011;10958;50.892;3.992;2023-09-19T00:30:52;10.40;;;2.22;;
21591;SDS011;10958;50.892;3.992;2023-09-19T00:33:20;10.40;;;2.00;;
21591;SDS011;10958;50.892;3.992;2023-09-19T00:35:51;9.25;;;1.83;;
21591;SDS011;10958;50.892;3.992;2023-09-19T00:38:18;8.90;;;2.20;;
21591;SDS011;10958;50.892;3.992;2023-09-19T00:40:53;8.38;;;1.70;;
21591;SDS011;10958;50.892;3.992;2023-09-19T00:43:22;10.77;;;2.22;;
21591;SDS011;10958;50.892;3.992;2023-09-19T00:45:50;10.85;;;1.85;;
21591;SDS011;10958;50.892;3.992;2023-09-19T00:48:23;9.45;;;1.83;;
21591;SDS011;10958;50.892;3.992;2023-09-19T00:50:53;14.35;;;1.83;;
21591;SDS011;10958;50.892;3.992;2023-09-19T00:53:20;11.13;;;2.15;;
21591;SDS011;10958;50.892;3.992;2023-09-19T00:55:52;15.75;;;1.80;;
21591;SDS011;10958;50.892;3.992;2023-09-19T00:58:18;6.22;;;2.10;;
21591;SDS011;10958;50.892;3.992;2023-09-19T01:00:46;14.10;;;2.20;;
21591;SDS011;10958;50.892;3.992;2023-09-19T01:03:15;8.05;;;2.08;;
21591;SDS011;10958;50.892;3.992;2023-09-19T01:05:46;9.02;;;1.90;;
21591;SDS011;10958;50.892;3.992;2023-09-19T01:08:15;11.02;;;2.60;;
21591;SDS011;10958;50.892;3.992;2023-09-19T01:10:44;8.13;;;2.20;;
21591;SDS011;10958;50.892;3.992;2023-09-19T01:13:40;12.63;;;2.22;;
21591;SDS011;10958;50.892;3.992;2023-09-19T01:16:29;10.88;;;2.13;;
21591;SDS011;10958;50.892;3.992;2023-09-19T01:29:46;9.68;;;2.33;;
21591;SDS011;10958;50.892;3.992;2023-09-19T01:32:18;8.50;;;2.42;;
21591;SDS011;10958;50.892;3.992;2023-09-19T01:37:34;9.10;;;2.25;;
21591;SDS011;10958;50.892;3.992;2023-09-19T01:40:04;7.50;;;2.28;;
21591;SDS011;10958;50.892;3.992;2023-09-19T01:53:30;13.48;;;2.55;;
21591;SDS011;10958;50.892;3.992;2023-09-19T01:56:05;12.10;;;2.20;;
21591;SDS011;10958;50.892;3.992;2023-09-19T01:58:39;8.57;;;1.60;;
21591;SDS011;10958;50.892;3.992;2023-09-19T02:01:14;11.23;;;1.90;;
21591;SDS011;10958;50.892;3.992;2023-09-19T02:03:44;9.55;;;2.10;;
21591;SDS011;10958;50.892;3.992;2023-09-19T02:06:16;9.88;;;2.20;;
21591;SDS011;10958;50.892;3.992;2023-09-19T02:08:44;12.93;;;2.13;;
21591;SDS011;10958;50.892;3.992;2023-09-19T02:11:12;9.60;;;2.10;;
21591;SDS011;10958;50.892;3.992;2023-09-19T02:13:38;15.55;;;2.85;;
21591;SDS011;10958;50.892;3.992;2023-09-19T02:16:08;7.85;;;2.35;;
21591;SDS011;10958;50.892;3.992;2023-09-19T02:18:36;14.45;;;2.40;;
21591;SDS011;10958;50.892;3.992;2023-09-19T02:21:02;12.50;;;2.75;;
21591;SDS011;10958;50.892;3.992;2023-09-19T02:23:29;9.63;;;2.17;;
21591;SDS011;10958;50.892;3.992;2023-09-19T02:25:55;13.48;;;2.40;;
21591;SDS011;10958;50.892;3.992;2023-09-19T02:28:28;12.20;;;2.47;;
21591;SDS011;10958;50.892;3.992;2023-09-19T02:33:26;7.65;;;2.00;;
21591;SDS011;10958;50.892;3.992;2023-09-19T02:35:58;19.00;;;2.97;;
21591;SDS011;10958;50.892;3.992;2023-09-19T02:38:27;13.73;;;2.33;;
21591;SDS011;10958;50.892;3.992;2023-09-19T02:40:54;10.75;;;2.35;;
21591;SDS011;10958;50.892;3.992;2023-09-19T02:43:20;13.25;;;2.70;;
21591;SDS011;10958;50.892;3.992;2023-09-19T02:45:47;11.10;;;2.75;;
21591;SDS011;10958;50.892;3.992;2023-09-19T02:48:18;11.23;;;2.30;;
21591;SDS011;10958;50.892;3.992;2023-09-19T02:50:44;7.78;;;2.13;;
21591;SDS011;10958;50.892;3.992;2023-09-19T02:53:11;10.52;;;2.10;;
21591;SDS011;10958;50.892;3.992;2023-09-19T02:55:38;9.82;;;1.98;;
21591;SDS011;10958;50.892;3.992;2023-09-19T02:58:05;12.82;;;2.03;;
21591;SDS011;10958;50.892;3.992;2023-09-19T03:00:36;11.73;;;1.60;;
21591;SDS011;10958;50.892;3.992;2023-09-19T03:03:03;8.77;;;1.63;;
21591;SDS011;10958;50.892;3.992;2023-09-19T03:05:31;10.25;;;1.70;;
21591;SDS011;10958;50.892;3.992;2023-09-19T03:07:58;9.45;;;1.90;;
21591;SDS011;10958;50.892;3.992;2023-09-19T03:18:11;8.63;;;1.83;;
21591;SDS011;10958;50.892;3.992;2023-09-19T03:20:43;14.35;;;1.90;;
21591;SDS011;10958;50.892;3.992;2023-09-19T03:23:09;12.38;;;2.67;;
21591;SDS011;10958;50.892;3.992;2023-09-19T03:25:36;10.23;;;1.80;;
21591;SDS011;10958;50.892;3.992;2023-09-19T03:28:02;9.73;;;2.00;;
21591;SDS011;10958;50.892;3.992;2023-09-19T03:30:31;11.32;;;2.08;;
21591;SDS011;10958;50.892;3.992;2023-09-19T03:32:59;8.27;;;1.95;;
21591;SDS011;10958;50.892;3.992;2023-09-19T03:35:26;13.65;;;2.40;;
21591;SDS011;10958;50.892;3.992;2023-09-19T03:37:55;14.15;;;2.70;;
21591;SDS011;10958;50.892;3.992;2023-09-19T03:40:21;11.35;;;2.40;;
21591;SDS011;10958;50.892;3.992;2023-09-19T03:42:48;17.17;;;2.00;;
21591;SDS011;10958;50.892;3.992;2023-09-19T03:45:14;13.05;;;2.30;;
21591;SDS011;10958;50.892;3.992;2023-09-19T03:47:41;13.25;;;2.33;;
21591;SDS011;10958;50.892;3.992;2023-09-19T03:50:12;11.00;;;1.92;;
21591;SDS011;10958;50.892;3.992;2023-09-19T03:52:45;12.27;;;1.80;;
21591;SDS011;10958;50.892;3.992;2023-09-19T03:55:11;7.85;;;2.03;;
21591;SDS011;10958;50.892;3.992;2023-09-19T03:57:37;18.33;;;3.03;;
21591;SDS011;10958;50.892;3.992;2023-09-19T04:00:04;15.70;;;2.25;;
21591;SDS011;10958;50.892;3.992;2023-09-19T04:02:36;11.80;;;1.88;;
21591;SDS011;10958;50.892;3.992;2023-09-19T04:05:03;12.57;;;2.13;;
21591;SDS011;10958;50.892;3.992;2023-09-19T04:10:06;13.55;;;2.30;;
21591;SDS011;10958;50.892;3.992;2023-09-19T04:12:37;9.93;;;2.37;;
21591;SDS011;10958;50.892;3.992;2023-09-19T04:15:06;13.77;;;2.20;;
21591;SDS011;10958;50.892;3.992;2023-09-19T04:17:33;10.80;;;2.17;;
21591;SDS011;10958;50.892;3.992;2023-09-19T04:19:59;8.85;;;1.83;;
21591;SDS011;10958;50.892;3.992;2023-09-19T04:22:25;11.35;;;1.95;;
21591;SDS011;10958;50.892;3.992;2023-09-19T04:24:52;11.60;;;2.33;;
21591;SDS011;10958;50.892;3.992;2023-09-19T04:27:18;9.27;;;2.50;;
21591;SDS011;10958;50.892;3.992;2023-09-19T04:29:44;9.00;;;2.15;;
21591;SDS011;10958;50.892;3.992;2023-09-19T04:32:10;13.27;;;2.58;;
21591;SDS011;10958;50.892;3.992;2023-09-19T04:34:37;15.63;;;2.30;;
21591;SDS011;10958;50.892;3.992;2023-09-19T04:37:05;14.75;;;2.38;;
21591;SDS011;10958;50.892;3.992;2023-09-19T04:39:31;10.55;;;1.88;;
21591;SDS011;10958;50.892;3.992;2023-09-19T04:41:57;12.52;;;2.30;;
21591;SDS011;10958;50.892;3.992;2023-09-19T04:44:25;8.47;;;2.40;;
21591;SDS011;10958;50.892;3.992;2023-09-19T04:46:51;14.65;;;2.20;;
21591;SDS011;10958;50.892;3.992;2023-09-19T04:49:17;13.65;;;2.70;;
21591;SDS011;10958;50.892;3.992;2023-09-19T04:51:43;13.98;;;1.85;;
21591;SDS011;10958;50.892;3.992;2023-09-19T04:54:11;11.83;;;2.27;;
21591;SDS011;10958;50.892;3.992;2023-09-19T04:56:38;8.05;;;1.65;;
21591;SDS011;10958;50.892;3.992;2023-09-19T04:59:05;11.82;;;1.92;;
21591;SDS011;10958;50.892;3.992;2023-09-19T05:01:31;11.73;;;1.80;;
21591;SDS011;10958;50.892;3.992;2023-09-19T05:03:57;14.68;;;2.70;;
21591;SDS011;10958;50.892;3.992;2023-09-19T05:06:24;14.73;;;2.45;;
21591;SDS011;10958;50.892;3.992;2023-09-19T05:08:51;10.35;;;1.90;;
21591;SDS011;10958;50.892;3.992;2023-09-19T05:11:18;11.60;;;2.30;;
21591;SDS011;10958;50.892;3.992;2023-09-19T05:13:45;12.23;;;2.13;;
21591;SDS011;10958;50.892;3.992;2023-09-19T05:16:10;16.10;;;2.95;;
21591;SDS011;10958;50.892;3.992;2023-09-19T05:18:37;11.32;;;2.35;;
21591;SDS011;10958;50.892;3.992;2023-09-19T05:21:04;9.55;;;2.47;;
21591;SDS011;10958;50.892;3.992;2023-09-19T05:23:30;19.33;;;2.42;;
21591;SDS011;10958;50.892;3.992;2023-09-19T05:25:56;13.85;;;2.40;;
21591;SDS011;10958;50.892;3.992;2023-09-19T05:28:25;12.03;;;2.00;;
21591;SDS011;10958;50.892;3.992;2023-09-19T05:30:52;14.20;;;2.53;;
21591;SDS011;10958;50.892;3.992;2023-09-19T05:33:18;10.85;;;2.47;;
21591;SDS011;10958;50.892;3.992;2023-09-19T05:35:44;13.82;;;2.05;;
21591;SDS011;10958;50.892;3.992;2023-09-19T05:38:12;14.03;;;2.40;;
21591;SDS011;10958;50.892;3.992;2023-09-19T05:40:39;12.88;;;2.72;;
21591;SDS011;10958;50.892;3.992;2023-09-19T05:43:10;12.07;;;2.35;;
21591;SDS011;10958;50.892;3.992;2023-09-19T05:45:37;12.93;;;2.10;;
21591;SDS011;10958;50.892;3.992;2023-09-19T05:48:11;10.38;;;2.42;;
21591;SDS011;10958;50.892;3.992;2023-09-19T05:50:38;16.70;;;2.30;;
21591;SDS011;10958;50.892;3.992;2023-09-19T05:53:06;12.90;;;2.10;;
21591;SDS011;10958;50.892;3.992;2023-09-19T05:55:32;10.50;;;2.00;;
21591;SDS011;10958;50.892;3.992;2023-09-19T05:58:00;11.75;;;2.47;;
21591;SDS011;10958;50.892;3.992;2023-09-19T06:00:28;12.77;;;2.43;;
21591;SDS011;10958;50.892;3.992;2023-09-19T06:02:54;10.23;;;2.05;;
21591;SDS011;10958;50.892;3.992;2023-09-19T06:05:24;11.95;;;3.10;;
21591;SDS011;10958;50.892;3.992;2023-09-19T06:07:55;11.77;;;2.35;;
21591;SDS011;10958;50.892;3.992;2023-09-19T06:10:25;11.38;;;2.28;;
21591;SDS011;10958;50.892;3.992;2023-09-19T06:12:52;12.02;;;2.13;;
21591;SDS011;10958;50.892;3.992;2023-09-19T06:15:20;9.35;;;2.00;;
21591;SDS011;10958;50.892;3.992;2023-09-19T06:17:51;10.07;;;1.90;;
21591;SDS011;10958;50.892;3.992;2023-09-19T06:20:20;8.48;;;1.95;;
21591;SDS011;10958;50.892;3.992;2023-09-19T06:22:47;10.25;;;2.80;;
21591;SDS011;10958;50.892;3.992;2023-09-19T06:25:14;11.13;;;2.10;;
21591;SDS011;10958;50.892;3.992;2023-09-19T06:27:50;14.77;;;2.03;;
21591;SDS011;10958;50.892;3.992;2023-09-19T06:30:19;15.35;;;2.63;;
21591;SDS011;10958;50.892;3.992;2023-09-19T06:32:45;12.27;;;2.55;;
21591;SDS011;10958;50.892;3.992;2023-09-19T06:35:11;10.13;;;2.20;;
21591;SDS011;10958;50.892;3.992;2023-09-19T06:37:38;7.80;;;1.58;;
21591;SDS011;10958;50.892;3.992;2023-09-19T06:40:08;11.48;;;1.95;;
21591;SDS011;10958;50.892;3.992;2023-09-19T06:45:07;14.13;;;2.05;;
21591;SDS011;10958;50.892;3.992;2023-09-19T06:47:36;14.00;;;2.20;;
21591;SDS011;10958;50.892;3.992;2023-09-19T06:50:02;11.30;;;2.20;;
21591;SDS011;10958;50.892;3.992;2023-09-19T06:52:28;9.80;;;2.13;;
21591;SDS011;10958;50.892;3.992;2023-09-19T06:54:54;13.52;;;2.15;;
21591;SDS011;10958;50.892;3.992;2023-09-19T06:57:19;13.00;;;2.05;;
21591;SDS011;10958;50.892;3.992;2023-09-19T06:59:45;13.32;;;2.10;;
21591;SDS011;10958;50.892;3.992;2023-09-19T07:02:11;9.73;;;1.77;;
21591;SDS011;10958;50.892;3.992;2023-09-19T07:04:39;10.07;;;1.73;;
21591;SDS011;10958;50.892;3.992;2023-09-19T07:07:09;8.30;;;1.65;;
21591;SDS011;10958;50.892;3.992;2023-09-19T07:09:36;10.68;;;2.20;;
21591;SDS011;10958;50.892;3.992;2023-09-19T07:12:02;10.43;;;1.73;;
21591;SDS011;10958;50.892;3.992;2023-09-19T07:14:28;19.27;;;2.17;;
21591;SDS011;10958;50.892;3.992;2023-09-19T07:16:55;8.60;;;1.58;;
21591;SDS011;10958;50.892;3.992;2023-09-19T07:19:21;10.63;;;1.85;;
21591;SDS011;10958;50.892;3.992;2023-09-19T07:21:46;9.88;;;1.95;;
21591;SDS011;10958;50.892;3.992;2023-09-19T07:24:15;9.70;;;2.10;;
21591;SDS011;10958;50.892;3.992;2023-09-19T07:26:41;10.57;;;2.08;;
21591;SDS011;10958;50.892;3.992;2023-09-19T07:29:07;9.05;;;1.90;;
21591;SDS011;10958;50.892;3.992;2023-09-19T07:31:33;7.22;;;1.90;;
21591;SDS011;10958;50.892;3.992;2023-09-19T07:33:59;9.23;;;2.67;;
21591;SDS011;10958;50.892;3.992;2023-09-19T07:36:25;9.65;;;1.70;;
21591;SDS011;10958;50.892;3.992;2023-09-19T07:38:51;9.43;;;2.20;;
21591;SDS011;10958;50.892;3.992;2023-09-19T07:43:50;9.20;;;1.90;;
21591;SDS011;10958;50.892;3.992;2023-09-19T07:46:17;10.73;;;2.22;;
21591;SDS011;10958;50.892;3.992;2023-09-19T07:48:42;10.68;;;2.28;;
21591;SDS011;10958;50.892;3.992;2023-09-19T07:51:16;11.00;;;2.25;;
21591;SDS011;10958;50.892;3.992;2023-09-19T07:53:42;11.27;;;1.95;;
21591;SDS011;10958;50.892;3.992;2023-09-19T07:56:08;12.02;;;2.28;;
21591;SDS011;10958;50.892;3.992;2023-09-19T07:58:35;9.00;;;1.83;;
21591;SDS011;10958;50.892;3.992;2023-09-19T08:01:04;7.28;;;2.15;;
21591;SDS011;10958;50.892;3.992;2023-09-19T08:03:34;10.90;;;2.15;;
21591;SDS011;10958;50.892;3.992;2023-09-19T08:06:00;11.73;;;2.33;;
21591;SDS011;10958;50.892;3.992;2023-09-19T08:08:29;9.73;;;2.45;;
21591;SDS011;10958;50.892;3.992;2023-09-19T08:10:55;9.82;;;2.65;;
21591;SDS011;10958;50.892;3.992;2023-09-19T08:13:24;12.05;;;1.95;;
21591;SDS011;10958;50.892;3.992;2023-09-19T08:15:51;10.23;;;1.90;;
21591;SDS011;10958;50.892;3.992;2023-09-19T08:18:21;11.10;;;2.13;;
21591;SDS011;10958;50.892;3.992;2023-09-19T08:20:51;10.07;;;2.15;;
21591;SDS011;10958;50.892;3.992;2023-09-19T08:23:18;10.32;;;2.38;;
21591;SDS011;10958;50.892;3.992;2023-09-19T08:25:46;9.27;;;1.60;;
21591;SDS011;10958;50.892;3.992;2023-09-19T08:28:12;10.93;;;1.85;;
21591;SDS011;10958;50.892;3.992;2023-09-19T08:30:44;7.30;;;1.80;;
21591;SDS011;10958;50.892;3.992;2023-09-19T08:33:11;3.67;;;1.50;;
21591;SDS011;10958;50.892;3.992;2023-09-19T08:35:39;10.82;;;1.95;;
21591;SDS011;10958;50.892;3.992;2023-09-19T08:38:10;7.40;;;2.03;;
21591;SDS011;10958;50.892;3.992;2023-09-19T08:40:39;8.52;;;1.77;;
21591;SDS011;10958;50.892;3.992;2023-09-19T08:43:07;12.85;;;2.42;;
21591;SDS011;10958;50.892;3.992;2023-09-19T08:45:35;11.32;;;2.25;;
21591;SDS011;10958;50.892;3.992;2023-09-19T08:50:43;8.38;;;1.90;;
21591;SDS011;10958;50.892;3.992;2023-09-19T08:53:26;10.70;;;2.25;;
21591;SDS011;10958;50.892;3.992;2023-09-19T08:56:14;14.50;;;2.03;;
21591;SDS011;10958;50.892;3.992;2023-09-19T08:58:47;7.30;;;1.75;;
21591;SDS011;10958;50.892;3.992;2023-09-19T09:01:23;8.27;;;1.42;;
21591;SDS011;10958;50.892;3.992;2023-09-19T09:03:55;8.50;;;1.65;;
21591;SDS011;10958;50.892;3.992;2023-09-19T09:06:24;14.15;;;1.85;;
21591;SDS011;10958;50.892;3.992;2023-09-19T09:11:21;14.13;;;2.78;;
21591;SDS011;10958;50.892;3.992;2023-09-19T09:13:49;7.07;;;1.50;;
21591;SDS011;10958;50.892;3.992;2023-09-19T09:16:16;9.43;;;1.35;;
21591;SDS011;10958;50.892;3.992;2023-09-19T09:18:45;11.73;;;2.03;;
21591;SDS011;10958;50.892;3.992;2023-09-19T09:21:17;8.27;;;1.40;;
21591;SDS011;10958;50.892;3.992;2023-09-19T09:23:43;6.03;;;1.48;;
21591;SDS011;10958;50.892;3.992;2023-09-19T09:28:44;10.52;;;1.65;;
21591;SDS011;10958;50.892;3.992;2023-09-19T09:31:23;9.50;;;1.70;;
21591;SDS011;10958;50.892;3.992;2023-09-19T09:33:53;6.05;;;1.27;;
21591;SDS011;10958;50.892;3.992;2023-09-19T09:36:35;11.30;;;1.83;;
21591;SDS011;10958;50.892;3.992;2023-09-19T09:39:07;8.52;;;1.65;;
21591;SDS011;10958;50.892;3.992;2023-09-19T09:41:49;5.53;;;1.30;;
21591;SDS011;10958;50.892;3.992;2023-09-19T09:44:18;8.93;;;1.70;;
21591;SDS011;10958;50.892;3.992;2023-09-19T09:46:47;4.88;;;1.45;;
21591;SDS011;10958;50.892;3.992;2023-09-19T09:49:27;8.85;;;1.70;;
21591;SDS011;10958;50.892;3.992;2023-09-19T09:52:00;8.27;;;1.48;;
21591;SDS011;10958;50.892;3.992;2023-09-19T09:54:32;7.45;;;1.15;;
21591;SDS011;10958;50.892;3.992;2023-09-19T09:57:02;6.18;;;1.20;;
21591;SDS011;10958;50.892;3.992;2023-09-19T10:03:43;5.57;;;1.20;;
21591;SDS011;10958;50.892;3.992;2023-09-19T10:06:13;7.03;;;1.50;;
21591;SDS011;10958;50.892;3.992;2023-09-19T10:11:45;5.32;;;1.40;;
21591;SDS011;10958;50.892;3.992;2023-09-19T10:14:18;6.57;;;1.73;;
21591;SDS011;10958;50.892;3.992;2023-09-19T10:16:49;9.23;;;1.20;;
21591;SDS011;10958;50.892;3.992;2023-09-19T10:19:58;9.55;;;1.20;;
21591;SDS011;10958;50.892;3.992;2023-09-19T10:22:13;5.25;;;1.42;;
21591;SDS011;10958;50.892;3.992;2023-09-19T10:24:41;5.07;;;1.13;;
21591;SDS011;10958;50.892;3.992;2023-09-19T10:27:11;7.00;;;0.93;;
21591;SDS011;10958;50.892;3.992;2023-09-19T10:29:39;5.38;;;1.00;;
21591;SDS011;10958;50.892;3.992;2023-09-19T10:32:05;6.88;;;1.50;;
21591;SDS011;10958;50.892;3.992;2023-09-19T10:37:02;6.63;;;1.10;;
21591;SDS011;10958;50.892;3.992;2023-09-19T10:39:31;11.65;;;1.23;;
21591;SDS011;10958;50.892;3.992;2023-09-19T10:42:03;4.22;;;1.00;;
21591;SDS011;10958;50.892;3.992;2023-09-19T10:44:33;6.53;;;1.30;;
21591;SDS011;10958;50.892;3.992;2023-09-19T10:47:03;5.95;;;1.52;;
21591;SDS011;10958;50.892;3.992;2023-09-19T10:49:32;4.72;;;1.15;;
21591;SDS011;10958;50.892;3.992;2023-09-19T10:51:58;3.80;;;1.30;;
21591;SDS011;10958;50.892;3.992;2023-09-19T10:54:27;1.58;;;0.82;;
21591;SDS011;10958;50.892;3.992;2023-09-19T10:57:02;7.00;;;1.02;;
21591;SDS011;10958;50.892;3.992;2023-09-19T10:59:30;4.43;;;1.00;;
21591;SDS011;10958;50.892;3.992;2023-09-19T11:02:00;3.75;;;1.17;;
21591;SDS011;10958;50.892;3.992;2023-09-19T11:04:42;4.15;;;1.00;;
21591;SDS011;10958;50.892;3.992;2023-09-19T11:15:11;6.35;;;1.20;;
21591;SDS011;10958;50.892;3.992;2023-09-19T11:19:00;5.28;;;0.73;;
21591;SDS011;10958;50.892;3.992;2023-09-19T11:24:32;4.18;;;1.10;;
21591;SDS011;10958;50.892;3.992;2023-09-19T11:27:09;4.57;;;1.50;;
21591;SDS011;10958;50.892;3.992;2023-09-19T11:29:38;4.93;;;1.05;;
21591;SDS011;10958;50.892;3.992;2023-09-19T11:32:05;9.57;;;0.95;;
21591;SDS011;10958;50.892;3.992;2023-09-19T11:39:36;3.40;;;1.00;;
21591;SDS011;10958;50.892;3.992;2023-09-19T11:48:22;7.57;;;1.40;;
21591;SDS011;10958;50.892;3.992;2023-09-19T11:50:52;4.95;;;0.75;;
21591;SDS011;10958;50.892;3.992;2023-09-19T11:53:18;3.20;;;1.02;;
21591;SDS011;10958;50.892;3.992;2023-09-19T11:55:46;6.40;;;1.13;;
21591;SDS011;10958;50.892;3.992;2023-09-19T11:58:17;3.42;;;0.82;;
21591;SDS011;10958;50.892;3.992;2023-09-19T12:00:45;4.57;;;1.17;;
21591;SDS011;10958;50.892;3.992;2023-09-19T12:03:12;4.97;;;1.00;;
21591;SDS011;10958;50.892;3.992;2023-09-19T12:05:39;7.20;;;1.10;;
21591;SDS011;10958;50.892;3.992;2023-09-19T12:08:05;4.28;;;0.77;;
21591;SDS011;10958;50.892;3.992;2023-09-19T12:10:46;4.72;;;1.42;;
21591;SDS011;10958;50.892;3.992;2023-09-19T12:13:19;2.47;;;0.90;;
21591;SDS011;10958;50.892;3.992;2023-09-19T12:15:46;5.65;;;1.35;;
21591;SDS011;10958;50.892;3.992;2023-09-19T12:20:53;4.72;;;1.35;;
21591;SDS011;10958;50.892;3.992;2023-09-19T12:23:19;7.55;;;1.38;;
21591;SDS011;10958;50.892;3.992;2023-09-19T12:25:49;4.28;;;0.95;;
21591;SDS011;10958;50.892;3.992;2023-09-19T12:28:17;5.53;;;1.00;;
21591;SDS011;10958;50.892;3.992;2023-09-19T12:30:43;4.30;;;1.10;;
21591;SDS011;10958;50.892;3.992;2023-09-19T12:33:17;4.30;;;0.70;;
21591;SDS011;10958;50.892;3.992;2023-09-19T12:35:45;6.00;;;1.00;;
21591;SDS011;10958;50.892;3.992;2023-09-19T12:38:10;4.18;;;0.93;;
21591;SDS011;10958;50.892;3.992;2023-09-19T12:40:48;4.97;;;1.13;;
21591;SDS011;10958;50.892;3.992;2023-09-19T12:43:16;4.45;;;1.10;;
21591;SDS011;10958;50.892;3.992;2023-09-19T12:45:43;4.25;;;1.00;;
21591;SDS011;10958;50.892;3.992;2023-09-19T12:56:06;8.50;;;1.48;;
21591;SDS011;10958;50.892;3.992;2023-09-19T12:58:33;9.07;;;1.13;;
21591;SDS011;10958;50.892;3.992;2023-09-19T13:01:20;7.35;;;1.42;;
21591;SDS011;10958;50.892;3.992;2023-09-19T13:04:33;2.63;;;0.93;;
21591;SDS011;10958;50.892;3.992;2023-09-19T13:06:37;3.55;;;1.00;;
21591;SDS011;10958;50.892;3.992;2023-09-19T13:09:11;4.43;;;1.45;;
21591;SDS011;10958;50.892;3.992;2023-09-19T13:11:38;6.60;;;1.30;;
21591;SDS011;10958;50.892;3.992;2023-09-19T13:19:39;5.63;;;1.00;;
21591;SDS011;10958;50.892;3.992;2023-09-19T13:25:03;4.03;;;1.13;;
21591;SDS011;10958;50.892;3.992;2023-09-19T13:27:31;3.35;;;1.00;;
21591;SDS011;10958;50.892;3.992;2023-09-19T13:29:58;2.30;;;0.95;;
21591;SDS011;10958;50.892;3.992;2023-09-19T13:32:24;4.47;;;0.98;;
21591;SDS011;10958;50.892;3.992;2023-09-19T13:34:51;5.03;;;1.23;;
21591;SDS011;10958;50.892;3.992;2023-09-19T13:37:16;3.25;;;0.93;;
21591;SDS011;10958;50.892;3.992;2023-09-19T13:39:43;4.05;;;0.80;;
21591;SDS011;10958;50.892;3.992;2023-09-19T13:42:14;4.20;;;1.17;;
21591;SDS011;10958;50.892;3.992;2023-09-19T13:44:41;6.35;;;1.20;;
21591;SDS011;10958;50.892;3.992;2023-09-19T13:47:07;3.88;;;1.00;;
21591;SDS011;10958;50.892;3.992;2023-09-19T13:49:35;4.93;;;0.90;;
21591;SDS011;10958;50.892;3.992;2023-09-19T13:52:03;6.65;;;1.35;;
21591;SDS011;10958;50.892;3.992;2023-09-19T13:54:30;3.10;;;1.30;;
21591;SDS011;10958;50.892;3.992;2023-09-19T13:56:56;4.90;;;1.40;;
21591;SDS011;10958;50.892;3.992;2023-09-19T13:59:23;4.20;;;1.48;;
21591;SDS011;10958;50.892;3.992;2023-09-19T14:01:49;3.75;;;1.27;;
21591;SDS011;10958;50.892;3.992;2023-09-19T14:04:15;7.68;;;1.40;;
21591;SDS011;10958;50.892;3.992;2023-09-19T14:06:42;5.25;;;1.15;;
21591;SDS011;10958;50.892;3.992;2023-09-19T14:09:08;4.40;;;1.25;;
21591;SDS011;10958;50.892;3.992;2023-09-19T14:11:35;5.40;;;1.17;;
21591;SDS011;10958;50.892;3.992;2023-09-19T14:14:02;5.25;;;1.10;;
21591;SDS011;10958;50.892;3.992;2023-09-19T14:16:30;5.93;;;1.33;;
21591;SDS011;10958;50.892;3.992;2023-09-19T14:18:58;4.18;;;1.25;;
21591;SDS011;10958;50.892;3.992;2023-09-19T14:21:24;7.32;;;1.42;;
21591;SDS011;10958;50.892;3.992;2023-09-19T14:23:53;4.93;;;1.33;;
21591;SDS011;10958;50.892;3.992;2023-09-19T14:26:23;5.93;;;1.13;;
21591;SDS011;10958;50.892;3.992;2023-09-19T14:28:49;8.48;;;1.40;;
21591;SDS011;10958;50.892;3.992;2023-09-19T14:31:15;6.05;;;1.33;;
21591;SDS011;10958;50.892;3.992;2023-09-19T14:33:40;5.15;;;1.50;;
21591;SDS011;10958;50.892;3.992;2023-09-19T14:36:09;4.90;;;1.35;;
21591;SDS011;10958;50.892;3.992;2023-09-19T14:38:36;5.35;;;1.52;;
21591;SDS011;10958;50.892;3.992;2023-09-19T14:41:03;3.08;;;1.20;;
21591;SDS011;10958;50.892;3.992;2023-09-19T14:43:30;3.28;;;1.10;;
21591;SDS011;10958;50.892;3.992;2023-09-19T14:46:09;9.50;;;1.33;;
21591;SDS011;10958;50.892;3.992;2023-09-19T14:48:39;4.85;;;1.40;;
21591;SDS011;10958;50.892;3.992;2023-09-19T14:51:05;7.47;;;1.70;;
21591;SDS011;10958;50.892;3.992;2023-09-19T14:53:33;6.43;;;1.25;;
21591;SDS011;10958;50.892;3.992;2023-09-19T14:56:00;3.83;;;1.08;;
21591;SDS011;10958;50.892;3.992;2023-09-19T14:58:33;6.30;;;1.40;;
21591;SDS011;10958;50.892;3.992;2023-09-19T15:01:09;5.72;;;1.55;;
21591;SDS011;10958;50.892;3.992;2023-09-19T15:03:35;7.72;;;1.60;;
21591;SDS011;10958;50.892;3.992;2023-09-19T15:06:05;6.18;;;1.60;;
21591;SDS011;10958;50.892;3.992;2023-09-19T15:08:34;6.15;;;1.27;;
21591;SDS011;10958;50.892;3.992;2023-09-19T15:11:03;3.78;;;1.15;;
21591;SDS011;10958;50.892;3.992;2023-09-19T15:13:34;5.15;;;1.38;;
21591;SDS011;10958;50.892;3.992;2023-09-19T15:16:01;4.40;;;1.15;;
21591;SDS011;10958;50.892;3.992;2023-09-19T15:18:33;7.50;;;1.58;;
21591;SDS011;10958;50.892;3.992;2023-09-19T15:21:05;8.00;;;1.48;;
21591;SDS011;10958;50.892;3.992;2023-09-19T15:23:32;4.82;;;1.30;;
21591;SDS011;10958;50.892;3.992;2023-09-19T15:26:06;5.13;;;1.80;;
21591;SDS011;10958;50.892;3.992;2023-09-19T15:28:33;7.18;;;1.45;;
21591;SDS011;10958;50.892;3.992;2023-09-19T15:31:09;10.20;;;1.60;;
21591;SDS011;10958;50.892;3.992;2023-09-19T15:33:36;6.90;;;1.75;;
21591;SDS011;10958;50.892;3.992;2023-09-19T15:36:06;6.80;;;1.17;;
21591;SDS011;10958;50.892;3.992;2023-09-19T15:41:23;6.32;;;1.75;;
21591;SDS011;10958;50.892;3.992;2023-09-19T15:43:50;5.75;;;1.67;;
21591;SDS011;10958;50.892;3.992;2023-09-19T15:46:17;3.15;;;1.50;;
21591;SDS011;10958;50.892;3.992;2023-09-19T15:48:46;7.28;;;2.08;;
21591;SDS011;10958;50.892;3.992;2023-09-19T15:53:42;5.05;;;1.95;;
21591;SDS011;10958;50.892;3.992;2023-09-19T15:56:12;4.38;;;1.35;;
21591;SDS011;10958;50.892;3.992;2023-09-19T15:58:39;9.73;;;1.80;;
21591;SDS011;10958;50.892;3.992;2023-09-19T16:01:12;6.07;;;1.55;;
21591;SDS011;10958;50.892;3.992;2023-09-19T16:03:40;5.93;;;1.50;;
21591;SDS011;10958;50.892;3.992;2023-09-19T16:06:15;4.50;;;1.20;;
21591;SDS011;10958;50.892;3.992;2023-09-19T16:08:49;6.97;;;1.52;;
21591;SDS011;10958;50.892;3.992;2023-09-19T16:11:16;4.38;;;1.58;;
21591;SDS011;10958;50.892;3.992;2023-09-19T16:13:43;5.28;;;1.38;;
21591;SDS011;10958;50.892;3.992;2023-09-19T16:16:14;5.35;;;1.50;;
21591;SDS011;10958;50.892;3.992;2023-09-19T16:18:48;7.43;;;1.60;;
21591;SDS011;10958;50.892;3.992;2023-09-19T16:21:18;8.07;;;1.77;;
21591;SDS011;10958;50.892;3.992;2023-09-19T16:23:48;8.20;;;1.50;;
21591;SDS011;10958;50.892;3.992;2023-09-19T16:26:19;8.27;;;1.55;;
21591;SDS011;10958;50.892;3.992;2023-09-19T16:28:46;7.75;;;1.80;;
21591;SDS011;10958;50.892;3.992;2023-09-19T16:31:15;5.47;;;1.50;;
21591;SDS011;10958;50.892;3.992;2023-09-19T16:33:43;6.20;;;1.15;;
21591;SDS011;10958;50.892;3.992;2023-09-19T16:36:13;6.40;;;2.15;;
21591;SDS011;10958;50.892;3.992;2023-09-19T16:38:42;4.72;;;1.55;;
21591;SDS011;10958;50.892;3.992;2023-09-19T16:41:12;4.82;;;1.23;;
21591;SDS011;10958;50.892;3.992;2023-09-19T16:43:41;4.55;;;1.50;;
21591;SDS011;10958;50.892;3.992;2023-09-19T16:46:08;5.82;;;1.48;;